createdAt,value
2018-02-18T05:57:24.258Z,3
2018-02-18T06:02:54.616Z,7
2018-02-18T06:05:54.782Z,10
2018-02-18T06:07:54.957Z,13
2018-02-18T06:09:25.033Z,17
2018-02-18T06:10:25.053Z,20
2018-02-18T06:11:25.146Z,23
2018-02-18T06:12:25.194Z,27
2018-02-18T06:13:25.280Z,30
2018-02-18T06:13:55.248Z,33
2018-02-18T06:14:25.353Z,37
2018-02-18T06:15:25.352Z,40
2018-02-18T06:15:55.435Z,43
2018-02-18T06:16:25.468Z,47
2018-02-18T06:16:55.466Z,50
2018-02-18T06:17:25.511Z,53
2018-02-18T06:17:55.501Z,57
2018-02-18T06:18:25.528Z,60
2018-02-18T06:18:55.583Z,63
2018-02-18T06:19:25.668Z,70
2018-02-18T06:19:55.634Z,73
2018-02-18T06:20:25.662Z,77
2018-02-18T06:20:55.684Z,83
2018-02-18T06:21:25.734Z,87
2018-02-18T06:21:55.744Z,93
2018-02-18T06:22:25.777Z,97
2018-02-18T06:22:55.818Z,103
2018-02-18T06:23:25.827Z,110
2018-02-18T06:23:55.867Z,113
2018-02-18T06:24:25.885Z,120
2018-02-18T06:24:55.919Z,127
2018-02-18T06:25:26.000Z,133
2018-02-18T06:25:55.979Z,140
2018-02-18T06:26:26.022Z,147
2018-02-18T06:26:56.042Z,153
2018-02-18T06:27:26.099Z,163
2018-02-18T06:27:56.151Z,170
2018-02-18T06:28:26.179Z,177
2018-02-18T06:28:56.182Z,183
2018-02-18T06:29:26.235Z,193
2018-02-18T06:29:56.266Z,200
2018-02-18T06:30:26.291Z,210
2018-02-18T06:30:56.323Z,213
2018-02-18T06:31:26.334Z,223
2018-02-18T06:31:56.375Z,233
2018-02-18T06:32:26.453Z,240
2018-02-18T06:32:56.468Z,250
2018-02-18T06:33:26.509Z,260
2018-02-18T06:33:56.556Z,270
2018-02-18T06:34:26.562Z,280
2018-02-18T06:34:56.552Z,290
2018-02-18T06:35:26.585Z,300
2018-02-18T06:35:56.666Z,310
2018-02-18T06:36:26.723Z,320
2018-02-18T06:36:56.680Z,330
2018-02-18T06:37:26.704Z,340
2018-02-18T06:37:56.735Z,353
2018-02-18T06:38:26.801Z,363
2018-02-18T06:38:56.818Z,373
2018-02-18T06:39:26.821Z,387
2018-02-18T06:39:56.854Z,397
2018-02-18T06:40:26.881Z,407
2018-02-18T06:40:56.908Z,420
2018-02-18T06:41:26.929Z,427
2018-02-18T06:41:57.052Z,440
2018-02-18T06:42:26.999Z,450
2018-02-18T06:42:57.036Z,463
2018-02-18T06:43:27.080Z,477
2018-02-18T06:43:57.094Z,487
2018-02-18T06:44:27.131Z,500
2018-02-18T06:44:57.167Z,510
2018-02-18T06:45:27.241Z,523
2018-02-18T06:45:57.222Z,537
2018-02-18T06:46:27.240Z,547
2018-02-18T06:46:57.319Z,563
2018-02-18T06:47:27.318Z,577
2018-02-18T06:47:57.360Z,590
2018-02-18T06:48:27.400Z,603
2018-02-18T06:48:57.448Z,617
2018-02-18T06:49:27.459Z,630
2018-02-18T06:49:57.505Z,640
2018-02-18T06:50:27.608Z,653
2018-02-18T06:50:57.567Z,667
2018-02-18T06:51:27.582Z,680
2018-02-18T06:51:57.620Z,693
2018-02-18T06:52:27.670Z,707
2018-02-18T06:52:57.737Z,720
2018-02-18T06:53:27.702Z,733
2018-02-18T06:53:57.781Z,753
2018-02-18T06:54:27.737Z,770
2018-02-18T06:54:57.773Z,783
2018-02-18T06:55:27.817Z,797
2018-02-18T06:55:57.916Z,810
2018-02-18T06:56:27.882Z,823
2018-02-18T06:56:57.969Z,837
2018-02-18T06:57:27.983Z,847
2018-02-18T06:57:57.974Z,857
2018-02-18T06:58:28.017Z,870
2018-02-18T06:58:58.047Z,883
2018-02-18T06:59:28.094Z,897
2018-02-18T06:59:58.090Z,910
2018-02-18T07:00:28.122Z,920
2018-02-18T07:00:58.201Z,933
2018-02-18T07:01:28.169Z,947
2018-02-18T07:01:58.272Z,960
2018-02-18T07:02:28.290Z,973
2018-02-18T07:02:58.308Z,983
2018-02-18T07:03:28.315Z,997
2018-02-18T07:03:58.347Z,1007
2018-02-18T07:04:28.372Z,1020
2018-02-18T07:04:58.422Z,1033
2018-02-18T07:05:28.695Z,1043
2018-02-18T07:05:58.467Z,1057
2018-02-18T07:06:28.495Z,1067
2018-02-18T07:06:58.519Z,1077
2018-02-18T07:07:28.545Z,1090
2018-02-18T07:07:58.621Z,1103
2018-02-18T07:08:28.580Z,1117
2018-02-18T07:08:58.655Z,1127
2018-02-18T07:09:28.659Z,1140
2018-02-18T07:09:58.709Z,1150
2018-02-18T07:10:28.720Z,1163
2018-02-18T07:10:58.764Z,1177
2018-02-18T07:11:28.773Z,1190
2018-02-18T07:11:58.798Z,1200
2018-02-18T07:12:28.846Z,1213
2018-02-18T07:12:58.875Z,1227
2018-02-18T07:13:28.889Z,1240
2018-02-18T07:13:58.930Z,1253
2018-02-18T07:14:28.952Z,1263
2018-02-18T07:14:58.981Z,1280
2018-02-18T07:15:29.078Z,1290
2018-02-18T07:15:59.094Z,1303
2018-02-18T07:16:29.096Z,1317
2018-02-18T07:16:59.143Z,1333
2018-02-18T07:17:29.163Z,1350
2018-02-18T07:17:59.219Z,1363
2018-02-18T07:18:29.232Z,1380
2018-02-18T07:18:59.275Z,1397
2018-02-18T07:19:29.276Z,1413
2018-02-18T07:19:59.289Z,1427
2018-02-18T07:20:29.369Z,1443
2018-02-18T07:20:59.423Z,1457
2018-02-18T07:21:29.427Z,1473
2018-02-18T07:21:59.431Z,1487
2018-02-18T07:22:29.518Z,1497
2018-02-18T07:22:59.601Z,1513
2018-02-18T07:23:29.510Z,1527
2018-02-18T07:23:59.614Z,1540
2018-02-18T07:24:29.606Z,1557
2018-02-18T07:24:59.634Z,1567
2018-02-18T07:25:29.676Z,1580
2018-02-18T07:25:59.666Z,1593
2018-02-18T07:26:29.732Z,1607
2018-02-18T07:26:59.742Z,1617
2018-02-18T07:27:29.765Z,1630
2018-02-18T07:27:59.796Z,1643
2018-02-18T07:28:29.827Z,1657
2018-02-18T07:28:59.895Z,1670
2018-02-18T07:29:29.924Z,1680
2018-02-18T07:29:59.964Z,1693
2018-02-18T07:30:30.034Z,1707
2018-02-18T07:30:59.971Z,1713
2018-02-18T07:31:30.003Z,1727
2018-02-18T07:32:00.037Z,1740
2018-02-18T07:32:30.131Z,1757
2018-02-18T07:33:00.088Z,1773
2018-02-18T07:33:30.142Z,1793
2018-02-18T07:34:00.234Z,1810
2018-02-18T07:34:30.181Z,1830
2018-02-18T07:35:00.839Z,1873
2018-02-18T07:35:30.265Z,2457
2018-02-18T07:36:01.091Z,3360
2018-02-18T07:36:30.308Z,4263
2018-02-18T07:37:01.013Z,4887
2018-02-18T07:37:30.373Z,4970
2018-02-18T07:38:00.998Z,5063
2018-02-18T07:38:30.507Z,5140
2018-02-18T07:39:00.805Z,5397
2018-02-18T07:39:30.503Z,5680
2018-02-18T07:40:01.426Z,6020
2018-02-18T07:40:30.557Z,6220
2018-02-18T07:41:00.953Z,6553
2018-02-18T07:41:30.621Z,6797
2018-02-18T07:42:01.092Z,6790
2018-02-18T07:42:30.671Z,6733
2018-02-18T07:43:00.730Z,6767
2018-02-18T07:43:30.790Z,6500
2018-02-18T07:44:00.772Z,6410
2018-02-18T07:44:30.879Z,6647
2018-02-18T07:45:00.822Z,6760
2018-02-18T07:45:30.870Z,6793
2018-02-18T07:46:00.894Z,6970
2018-02-18T07:46:30.940Z,6817
2018-02-18T07:47:00.955Z,6930
2018-02-18T07:47:31.039Z,7137
2018-02-18T07:48:01.060Z,7413
2018-02-18T07:48:31.087Z,7850
2018-02-18T07:49:01.091Z,8147
2018-02-18T07:49:31.145Z,8157
2018-02-18T07:50:01.137Z,8307
2018-02-18T07:50:31.208Z,8297
2018-02-18T07:51:01.266Z,8073
2018-02-18T07:51:31.302Z,8013
2018-02-18T07:52:01.298Z,7823
2018-02-18T07:52:31.297Z,8180
2018-02-18T07:53:01.374Z,8747
2018-02-18T07:53:31.408Z,9533
2018-02-18T07:54:01.392Z,10347
2018-02-18T07:54:31.423Z,10420
2018-02-18T07:55:01.471Z,10493
2018-02-18T07:55:31.509Z,10523
2018-02-18T07:56:01.565Z,10617
2018-02-18T07:56:31.568Z,10787
2018-02-18T07:57:01.554Z,11037
2018-02-18T07:57:31.655Z,11393
2018-02-18T07:58:01.623Z,11493
2018-02-18T07:58:31.675Z,11597
2018-02-18T07:59:01.682Z,11687
2018-02-18T07:59:31.777Z,11770
2018-02-18T08:00:01.747Z,11827
2018-02-18T08:00:31.809Z,11913
2018-02-18T08:01:01.838Z,12050
2018-02-18T08:01:31.868Z,12167
2018-02-18T08:02:01.881Z,12280
2018-02-18T08:02:31.947Z,12377
2018-02-18T08:03:01.952Z,12467
2018-02-18T08:03:31.963Z,12550
2018-02-18T08:04:02.001Z,12410
2018-02-18T08:04:32.029Z,12393
2018-02-18T08:05:02.059Z,12467
2018-02-18T08:05:32.144Z,12660
2018-02-18T08:06:02.215Z,12983
2018-02-18T08:06:32.197Z,13077
2018-02-18T08:07:02.221Z,13137
2018-02-18T08:07:32.209Z,13223
2018-02-18T08:08:02.258Z,13333
2018-02-18T08:08:32.328Z,13393
2018-02-18T08:09:02.306Z,13503
2018-02-18T08:09:32.479Z,13577
2018-02-18T08:10:02.407Z,13663
2018-02-18T08:10:32.439Z,13617
2018-02-18T08:11:02.455Z,13773
2018-02-18T08:11:32.562Z,13880
2018-02-18T08:12:02.490Z,13987
2018-02-18T08:12:32.527Z,14050
2018-02-18T08:13:02.551Z,14137
2018-02-18T08:13:32.612Z,14217
2018-02-18T08:14:02.658Z,14287
2018-02-18T08:14:32.730Z,14327
2018-02-18T08:15:02.693Z,14420
2018-02-18T08:15:32.691Z,14490
2018-02-18T08:16:02.858Z,14570
2018-02-18T08:16:32.822Z,14643
2018-02-18T08:17:02.802Z,14690
2018-02-18T08:17:32.857Z,14780
2018-02-18T08:18:02.873Z,14867
2018-02-18T08:18:32.896Z,14947
2018-02-18T08:19:02.926Z,15013
2018-02-18T08:19:32.953Z,15093
2018-02-18T08:20:02.993Z,15167
2018-02-18T08:20:33.041Z,15273
2018-02-18T08:21:03.059Z,15373
2018-02-18T08:21:33.065Z,15457
2018-02-18T08:22:03.107Z,15507
2018-02-18T08:22:33.202Z,15553
2018-02-18T08:23:03.217Z,15633
2018-02-18T08:23:33.215Z,15740
2018-02-18T08:24:03.236Z,15823
2018-02-18T08:24:33.318Z,15927
2018-02-18T08:25:03.311Z,15980
2018-02-18T08:25:33.324Z,16053
2018-02-18T08:26:03.481Z,16140
2018-02-18T08:26:33.458Z,16180
2018-02-18T08:27:03.493Z,16240
2018-02-18T08:27:33.510Z,16320
2018-02-18T08:28:03.492Z,16397
2018-02-18T08:28:33.527Z,16520
2018-02-18T08:29:03.561Z,16613
2018-02-18T08:29:33.608Z,16667
2018-02-18T08:30:03.630Z,16757
2018-02-18T08:30:33.658Z,16807
2018-02-18T08:31:03.734Z,16883
2018-02-18T08:31:33.741Z,16913
2018-02-18T08:32:03.759Z,17013
2018-02-18T08:32:33.773Z,17067
2018-02-18T08:33:03.802Z,17137
2018-02-18T08:33:33.884Z,17233
2018-02-18T08:34:03.887Z,17347
2018-02-18T08:34:33.926Z,17403
2018-02-18T08:35:04.072Z,17440
2018-02-18T08:35:33.940Z,17323
2018-02-18T08:36:04.048Z,17417
2018-02-18T08:36:34.045Z,17620
2018-02-18T08:37:04.075Z,17327
2018-02-18T08:37:34.099Z,16917
2018-02-18T08:38:04.163Z,16130
2018-02-18T08:38:34.162Z,14543
2018-02-18T08:39:04.154Z,15013
2018-02-18T08:39:34.257Z,17560
2018-02-18T08:40:04.212Z,18413
2018-02-18T08:40:34.316Z,18360
2018-02-18T08:41:04.439Z,18367
2018-02-18T08:42:04.405Z,18427
2018-02-18T08:42:34.439Z,18480
2018-02-18T08:43:04.452Z,18523
2018-02-18T08:43:34.481Z,18603
2018-02-18T08:44:04.466Z,18647
2018-02-18T08:44:34.533Z,18687
2018-02-18T08:45:04.557Z,18773
2018-02-18T08:45:34.559Z,18847
2018-02-18T08:46:04.590Z,18900
2018-02-18T08:46:34.634Z,18980
2018-02-18T08:47:04.634Z,19030
2018-02-18T08:47:34.686Z,19113
2018-02-18T08:48:04.697Z,19180
2018-02-18T08:48:34.729Z,19253
2018-02-18T08:49:04.767Z,19290
2018-02-18T08:49:34.854Z,19353
2018-02-18T08:50:04.885Z,19417
2018-02-18T08:50:34.860Z,19497
2018-02-18T08:51:04.889Z,19600
2018-02-18T08:51:34.915Z,19640
2018-02-18T08:52:05.025Z,19680
2018-02-18T08:52:34.990Z,19757
2018-02-18T08:53:05.007Z,19760
2018-02-18T08:53:35.037Z,19880
2018-02-18T08:54:05.066Z,19977
2018-02-18T08:54:35.143Z,20043
2018-02-18T08:55:05.137Z,20077
2018-02-18T08:55:35.239Z,20127
2018-02-18T08:56:06.394Z,20193
2018-02-18T08:56:35.288Z,20310
2018-02-18T08:57:05.253Z,20403
2018-02-18T08:57:35.323Z,20490
2018-02-18T08:58:05.373Z,20570
2018-02-18T08:58:35.393Z,20597
2018-02-18T08:59:05.382Z,20633
2018-02-18T08:59:35.466Z,20723
2018-02-18T09:00:05.467Z,20773
2018-02-18T09:00:35.491Z,20840
2018-02-18T09:01:05.563Z,20937
2018-02-18T09:01:35.532Z,20993
2018-02-18T09:02:05.802Z,21047
2018-02-18T09:02:35.622Z,21033
2018-02-18T09:03:05.624Z,21070
2018-02-18T09:03:35.668Z,21127
2018-02-18T09:04:05.682Z,21233
2018-02-18T09:04:35.755Z,21317
2018-02-18T09:05:06.000Z,21413
2018-02-18T09:05:35.786Z,21483
2018-02-18T09:06:05.820Z,21470
2018-02-18T09:06:35.882Z,21557
2018-02-18T09:07:05.871Z,21637
2018-02-18T09:07:35.909Z,21720
2018-02-18T09:08:05.950Z,21803
2018-02-18T09:08:36.009Z,21843
2018-02-18T09:09:05.994Z,21867
2018-02-18T09:09:36.039Z,21890
2018-02-18T09:10:06.106Z,21943
2018-02-18T09:10:36.130Z,22030
2018-02-18T09:11:06.180Z,22067
2018-02-18T09:11:36.147Z,22187
2018-02-18T09:12:06.215Z,22210
2018-02-18T09:12:36.208Z,22280
2018-02-18T09:13:06.295Z,22360
2018-02-18T09:13:36.348Z,22417
2018-02-18T09:14:06.301Z,22490
2018-02-18T09:14:36.396Z,22550
2018-02-18T09:15:06.384Z,22647
2018-02-18T09:15:36.469Z,22713
2018-02-18T09:16:06.474Z,22760
2018-02-18T09:16:36.513Z,22800
2018-02-18T09:17:06.499Z,22903
2018-02-18T09:17:36.530Z,22940
2018-02-18T09:18:06.610Z,22997
2018-02-18T09:18:36.654Z,23033
2018-02-18T09:19:06.679Z,23093
2018-02-18T09:19:36.703Z,23103
2018-02-18T09:20:06.819Z,23137
2018-02-18T09:20:36.737Z,23247
2018-02-18T09:21:06.870Z,23277
2018-02-18T09:21:36.817Z,23297
2018-02-18T09:22:06.878Z,23370
2018-02-18T09:22:36.862Z,23443
2018-02-18T09:23:06.915Z,23537
2018-02-18T09:23:36.893Z,23577
2018-02-18T09:24:06.953Z,23657
2018-02-18T09:24:37.021Z,23733
2018-02-18T09:25:07.034Z,23767
2018-02-18T09:25:37.047Z,23777
2018-02-18T09:26:07.140Z,23823
2018-02-18T09:26:37.118Z,23857
2018-02-18T09:27:07.170Z,23920
2018-02-18T09:27:37.230Z,23957
2018-02-18T09:28:07.251Z,24007
2018-02-18T09:28:37.238Z,24073
2018-02-18T09:29:07.302Z,24107
2018-02-18T09:29:37.301Z,24157
2018-02-18T09:30:07.331Z,24153
2018-02-18T09:30:37.369Z,24207
2018-02-18T09:31:07.444Z,24350
2018-02-18T09:31:37.455Z,24383
2018-02-18T09:32:07.495Z,24353
2018-02-18T09:32:37.455Z,24377
2018-02-18T09:33:07.504Z,24457
2018-02-18T09:33:37.545Z,24537
2018-02-18T09:34:07.546Z,24627
2018-02-18T09:34:37.585Z,24730
2018-02-18T09:35:07.648Z,24770
2018-02-18T09:35:37.633Z,24793
2018-02-18T09:36:07.728Z,24873
2018-02-18T09:36:37.701Z,24927
2018-02-18T09:37:07.721Z,25030
2018-02-18T09:37:37.825Z,25043
2018-02-18T09:38:07.784Z,25103
2018-02-18T09:38:37.824Z,25087
2018-02-18T09:39:07.856Z,25173
2018-02-18T09:39:37.868Z,25240
2018-02-18T09:40:07.911Z,25313
2018-02-18T09:40:37.966Z,25337
2018-02-18T09:41:08.019Z,25393
2018-02-18T09:41:38.004Z,25477
2018-02-18T09:42:08.035Z,25443
2018-02-18T09:42:38.066Z,25587
2018-02-18T09:43:08.156Z,25613
2018-02-18T09:43:38.157Z,25673
2018-02-18T09:44:08.196Z,25690
2018-02-18T09:44:38.200Z,25743
2018-02-18T09:45:08.235Z,25810
2018-02-18T09:45:38.245Z,25843
2018-02-18T09:46:08.304Z,25900
2018-02-18T09:46:38.532Z,25947
2018-02-18T09:47:08.347Z,26007
2018-02-18T09:47:38.410Z,25983
2018-02-18T09:48:08.400Z,26107
2018-02-18T09:48:38.476Z,26027
2018-02-18T09:49:08.478Z,26163
2018-02-18T09:49:38.532Z,26117
2018-02-18T09:50:08.581Z,26237
2018-02-18T09:50:38.572Z,26257
2018-02-18T09:51:08.658Z,26360
2018-02-18T09:51:38.617Z,26370
2018-02-18T09:52:08.684Z,26367
2018-02-18T09:52:38.712Z,26337
2018-02-18T09:53:08.764Z,26420
2018-02-18T09:53:38.742Z,26480
2018-02-18T09:54:08.802Z,26580
2018-02-18T09:54:38.815Z,26603
2018-02-18T09:55:08.849Z,26653
2018-02-18T09:55:38.877Z,26613
2018-02-18T09:56:08.955Z,26643
2018-02-18T09:56:38.928Z,26703
2018-02-18T09:57:08.957Z,26820
2018-02-18T09:57:39.008Z,26780
2018-02-18T09:58:09.109Z,26850
2018-02-18T09:58:39.066Z,26883
2018-02-18T09:59:09.091Z,26953
2018-02-18T09:59:39.122Z,26963
2018-02-18T10:00:09.147Z,26943
2018-02-18T10:00:39.182Z,26990
2018-02-18T10:01:09.239Z,27027
2018-02-18T10:01:39.273Z,27090
2018-02-18T10:02:09.264Z,27157
2018-02-18T10:02:39.354Z,27233
2018-02-18T10:03:09.360Z,27213
2018-02-18T10:03:39.400Z,27283
2018-02-18T10:04:09.436Z,27333
2018-02-18T10:04:39.515Z,27370
2018-02-18T10:05:09.571Z,27433
2018-02-18T10:05:39.561Z,27380
2018-02-18T10:06:09.634Z,27453
2018-02-18T10:06:39.589Z,27527
2018-02-18T10:07:09.597Z,27533
2018-02-18T10:07:39.682Z,27543
2018-02-18T10:08:09.724Z,27623
2018-02-18T10:08:39.717Z,27673
2018-02-18T10:09:09.718Z,27737
2018-02-18T10:10:09.788Z,27770
2018-02-18T10:10:40.532Z,27833
2018-02-18T10:11:09.942Z,27917
2018-02-18T10:11:39.861Z,27897
2018-02-18T10:12:09.945Z,27910
2018-02-18T10:12:39.961Z,27853
2018-02-18T10:13:09.993Z,27973
2018-02-18T10:13:40.017Z,28030
2018-02-18T10:14:10.032Z,28063
2018-02-18T10:14:40.108Z,28123
2018-02-18T10:15:10.107Z,28100
2018-02-18T10:15:40.142Z,28163
2018-02-18T10:16:10.243Z,28183
2018-02-18T10:16:40.179Z,28190
2018-02-18T10:17:10.233Z,28247
2018-02-18T10:17:40.350Z,28293
2018-02-18T10:18:10.309Z,28367
2018-02-18T10:18:40.320Z,28393
2018-02-18T10:19:10.368Z,28400
2018-02-18T10:19:40.356Z,28473
2018-02-18T10:20:10.439Z,28467
2018-02-18T10:20:40.415Z,28493
2018-02-18T10:21:10.491Z,28527
2018-02-18T10:21:40.477Z,28570
2018-02-18T10:22:10.523Z,28580
2018-02-18T10:22:40.528Z,28590
2018-02-18T10:23:10.573Z,28617
2018-02-18T10:23:40.608Z,28587
2018-02-18T10:24:10.871Z,28647
2018-02-18T10:24:40.674Z,28697
2018-02-18T10:25:10.720Z,28637
2018-02-18T10:25:40.736Z,28570
2018-02-18T10:26:10.779Z,28567
2018-02-18T10:26:40.790Z,28617
2018-02-18T10:27:10.805Z,28660
2018-02-18T10:27:40.864Z,28637
2018-02-18T10:28:10.888Z,28630
2018-02-18T10:28:40.909Z,28550
2018-02-18T10:29:10.979Z,28743
2018-02-18T10:29:40.985Z,28720
2018-02-18T10:30:11.030Z,28817
2018-02-18T10:30:41.088Z,28903
2018-02-18T10:31:11.341Z,29027
2018-02-18T10:32:11.178Z,29040
2018-02-18T10:32:41.157Z,29030
2018-02-18T10:33:41.251Z,29003
2018-02-18T10:34:11.266Z,29037
2018-02-18T10:34:41.272Z,28913
2018-02-18T10:35:41.419Z,28837
2018-02-18T10:36:11.486Z,28753
2018-02-18T10:36:41.445Z,29103
2018-02-18T10:37:11.467Z,29223
2018-02-18T10:37:41.479Z,29150
2018-02-18T10:38:11.491Z,29200
2018-02-18T10:38:41.544Z,29240
2018-02-18T10:39:11.623Z,29223
2018-02-18T10:39:41.584Z,29197
2018-02-18T10:40:11.644Z,29160
2018-02-18T10:40:41.655Z,29260
2018-02-18T10:41:11.709Z,29187
2018-02-18T10:41:41.723Z,29200
2018-02-18T10:42:11.750Z,29297
2018-02-18T10:42:41.769Z,29367
2018-02-18T10:43:11.830Z,29440
2018-02-18T10:43:41.823Z,29383
2018-02-18T10:44:11.848Z,29390
2018-02-18T10:44:42.090Z,29303
2018-02-18T10:45:11.987Z,29330
2018-02-18T10:45:41.961Z,29433
2018-02-18T10:46:11.976Z,29557
2018-02-18T10:46:42.012Z,29540
2018-02-18T10:47:12.075Z,29607
2018-02-18T10:47:42.076Z,29527
2018-02-18T10:48:12.123Z,29573
2018-02-18T10:48:42.133Z,29617
2018-02-18T10:49:12.214Z,29673
2018-02-18T10:49:42.230Z,29630
2018-02-18T10:50:12.283Z,29713
2018-02-18T10:50:42.326Z,29663
2018-02-18T10:51:12.322Z,29703
2018-02-18T10:51:42.329Z,29717
2018-02-18T10:52:12.366Z,29693
2018-02-18T10:52:42.387Z,29670
2018-02-18T10:53:12.465Z,29697
2018-02-18T10:53:42.507Z,29790
2018-02-18T10:54:12.520Z,29780
2018-02-18T10:54:42.560Z,29860
2018-02-18T10:55:12.663Z,29837
2018-02-18T10:55:42.621Z,30033
2018-02-18T10:56:12.631Z,29903
2018-02-18T10:56:42.696Z,29923
2018-02-18T10:57:12.699Z,29793
2018-02-18T10:57:42.755Z,29810
2018-02-18T10:58:12.759Z,29830
2018-02-18T10:58:42.813Z,29860
2018-02-18T10:59:12.808Z,29930
2018-02-18T10:59:42.864Z,29987
2018-02-18T11:00:13.163Z,30010
2018-02-18T11:00:42.919Z,30047
2018-02-18T11:01:13.082Z,30023
2018-02-18T11:01:42.982Z,30173
2018-02-18T11:02:13.060Z,30307
2018-02-18T11:02:43.054Z,30380
2018-02-18T11:03:13.073Z,30263
2018-02-18T11:03:43.115Z,30303
2018-02-18T11:04:13.134Z,30323
2018-02-18T11:04:43.179Z,30373
2018-02-18T11:05:13.223Z,30347
2018-02-18T11:05:43.270Z,30350
2018-02-18T11:06:13.277Z,30263
2018-02-18T11:06:43.306Z,30320
2018-02-18T11:07:13.319Z,30363
2018-02-18T11:07:43.368Z,30510
2018-02-18T11:08:13.368Z,30627
2018-02-18T11:08:43.420Z,30600
2018-02-18T11:09:13.470Z,30537
2018-02-18T11:09:43.490Z,30037
2018-02-18T11:10:13.526Z,29910
2018-02-18T11:10:43.494Z,29907
2018-02-18T11:11:13.545Z,29530
2018-02-18T11:11:43.564Z,28593
2018-02-18T11:12:13.660Z,28840
2018-02-18T11:12:43.635Z,28400
2018-02-18T11:13:13.698Z,29227
2018-02-18T11:13:43.671Z,29187
2018-02-18T11:14:13.763Z,29250
2018-02-18T11:14:43.787Z,29427
2018-02-18T11:15:13.808Z,29313
2018-02-18T11:15:43.815Z,29303
2018-02-18T11:16:13.851Z,29350
2018-02-18T11:16:43.885Z,29473
2018-02-18T11:17:13.886Z,29260
2018-02-18T11:17:43.956Z,29290
2018-02-18T11:18:13.968Z,29190
2018-02-18T11:18:43.979Z,29107
2018-02-18T11:19:14.020Z,29187
2018-02-18T11:19:44.050Z,28613
2018-02-18T11:20:14.084Z,28687
2018-02-18T11:20:44.112Z,29027
2018-02-18T11:21:14.170Z,29163
2018-02-18T11:21:44.228Z,29310
2018-02-18T11:22:14.240Z,29503
2018-02-18T11:22:44.304Z,29623
2018-02-18T11:23:14.278Z,29610
2018-02-18T11:23:44.335Z,29657
2018-02-18T11:24:14.366Z,29440
2018-02-18T11:24:44.422Z,29280
2018-02-18T11:25:14.462Z,29577
2018-02-18T11:25:44.689Z,29683
2018-02-18T11:26:14.483Z,29900
2018-02-18T11:26:44.544Z,30070
2018-02-18T11:27:14.539Z,30183
2018-02-18T11:27:44.598Z,30190
2018-02-18T11:28:14.585Z,30153
2018-02-18T11:28:44.676Z,30190
2018-02-18T11:29:14.654Z,30333
2018-02-18T11:29:44.657Z,30510
2018-02-18T11:30:14.728Z,30587
2018-02-18T11:30:44.729Z,30550
2018-02-18T11:31:14.776Z,30513
2018-02-18T11:31:44.829Z,30407
2018-02-18T11:32:14.879Z,30320
2018-02-18T11:32:44.861Z,30443
2018-02-18T11:33:14.881Z,30387
2018-02-18T11:33:44.952Z,29953
2018-02-18T11:34:14.935Z,29820
2018-02-18T11:34:44.977Z,29777
2018-02-18T11:35:15.036Z,30000
2018-02-18T11:35:45.044Z,30193
2018-02-18T11:36:15.124Z,30283
2018-02-18T11:36:45.147Z,30233
2018-02-18T11:37:15.156Z,30560
2018-02-18T11:37:45.210Z,30747
2018-02-18T11:38:15.216Z,31153
2018-02-18T11:38:45.215Z,30933
2018-02-18T11:39:15.352Z,30700
2018-02-18T11:39:45.319Z,30770
2018-02-18T11:40:15.318Z,31110
2018-02-18T11:40:45.365Z,31440
2018-02-18T11:41:15.405Z,31380
2018-02-18T11:41:45.682Z,31440
2018-02-18T11:42:15.474Z,31450
2018-02-18T11:42:45.495Z,31193
2018-02-18T11:43:15.529Z,31033
2018-02-18T11:43:45.566Z,30873
2018-02-18T11:44:15.578Z,31063
2018-02-18T11:44:45.672Z,27140
2018-02-18T11:45:15.726Z,23400
2018-02-18T11:45:45.693Z,25680
2018-02-18T11:46:15.736Z,27343
2018-02-18T11:46:45.794Z,29637
2018-02-18T11:47:15.801Z,29450
2018-02-18T11:47:45.838Z,29140
2018-02-18T11:48:15.863Z,29240
2018-02-18T11:48:45.834Z,28843
2018-02-18T11:49:15.904Z,28487
2018-02-18T11:49:45.977Z,27330
2018-02-18T11:50:15.970Z,27083
2018-02-18T11:50:45.995Z,28100
2018-02-18T11:51:16.032Z,28377
2018-02-18T11:51:46.127Z,29047
2018-02-18T11:52:16.157Z,28833
2018-02-18T11:52:46.143Z,29013
2018-02-18T11:53:16.172Z,29693
2018-02-18T11:53:46.196Z,30017
2018-02-18T11:54:16.263Z,29650
2018-02-18T11:54:46.264Z,29087
2018-02-18T11:55:16.287Z,28487
2018-02-18T11:55:46.333Z,28547
2018-02-18T11:56:16.368Z,28500
2018-02-18T11:56:46.416Z,27533
2018-02-18T11:57:16.405Z,26717
2018-02-18T11:57:46.445Z,27460
2018-02-18T11:58:16.422Z,28407
2018-02-18T11:58:46.510Z,28183
2018-02-18T11:59:16.514Z,28097
2018-02-18T11:59:46.537Z,28163
2018-02-18T12:00:16.610Z,28610
2018-02-18T12:00:46.587Z,28293
2018-02-18T12:01:17.413Z,28793
2018-02-18T12:01:46.638Z,29267
2018-02-18T12:02:16.739Z,29637
2018-02-18T12:02:46.725Z,29900
2018-02-18T12:03:16.749Z,30063
2018-02-18T12:03:46.833Z,29980
2018-02-18T12:04:16.801Z,30303
2018-02-18T12:04:46.879Z,30420
2018-02-18T12:05:16.892Z,30300
2018-02-18T12:05:46.884Z,30117
2018-02-18T12:06:17.019Z,29943
2018-02-18T12:06:46.984Z,29730
2018-02-18T12:07:17.504Z,29800
2018-02-18T12:07:47.036Z,29587
2018-02-18T12:08:17.039Z,29377
2018-02-18T12:09:17.137Z,29607
2018-02-18T12:09:47.204Z,29540
2018-02-18T12:10:17.251Z,29557
2018-02-18T12:10:47.235Z,29470
2018-02-18T12:11:17.228Z,29300
2018-02-18T12:11:47.263Z,28940
2018-02-18T12:12:17.321Z,29127
2018-02-18T12:12:47.383Z,29213
2018-02-18T12:13:17.357Z,29333
2018-02-18T12:13:47.432Z,29380
2018-02-18T12:14:17.435Z,29333
2018-02-18T12:14:47.470Z,29403
2018-02-18T12:15:17.526Z,29313
2018-02-18T12:15:47.513Z,29160
2018-02-18T12:16:17.632Z,29053
2018-02-18T12:16:47.615Z,29420
2018-02-18T12:17:17.625Z,29247
2018-02-18T12:17:47.668Z,29277
2018-02-18T12:18:17.686Z,29200
2018-02-18T12:18:47.691Z,29250
2018-02-18T12:19:17.730Z,29257
2018-02-18T12:19:47.759Z,29367
2018-02-18T12:20:17.773Z,29363
2018-02-18T12:20:47.826Z,28957
2018-02-18T12:21:17.902Z,29067
2018-02-18T12:21:47.957Z,29257
2018-02-18T12:22:17.903Z,28747
2018-02-18T12:22:48.002Z,28870
2018-02-18T12:23:17.965Z,29363
2018-02-18T12:23:47.992Z,29680
2018-02-18T12:24:18.355Z,29603
2018-02-18T12:24:48.061Z,29090
2018-02-18T12:25:18.095Z,28927
2018-02-18T12:25:48.146Z,29267
2018-02-18T12:26:18.167Z,29093
2018-02-18T12:26:48.189Z,29263
2018-02-18T12:27:18.270Z,29423
2018-02-18T12:27:48.255Z,29440
2018-02-18T12:28:18.319Z,29833
2018-02-18T12:28:48.328Z,29953
2018-02-18T12:29:18.412Z,30040
2018-02-18T12:29:48.373Z,29490
2018-02-18T12:30:18.406Z,29240
2018-02-18T12:30:48.474Z,29343
2018-02-18T12:31:18.579Z,29440
2018-02-18T12:31:48.549Z,29173
2018-02-18T12:32:18.565Z,29227
2018-02-18T12:32:48.602Z,29407
2018-02-18T12:33:18.631Z,29370
2018-02-18T12:33:48.604Z,29187
2018-02-18T12:34:18.716Z,29060
2018-02-18T12:34:48.775Z,29163
2018-02-18T12:35:18.772Z,29363
2018-02-18T12:35:48.767Z,29547
2018-02-18T12:36:18.779Z,29563
2018-02-18T12:36:48.845Z,29660
2018-02-18T12:37:18.901Z,28870
2018-02-18T12:37:48.919Z,26880
2018-02-18T12:38:18.945Z,26097
2018-02-18T12:38:48.961Z,20393
2018-02-18T12:39:19.064Z,27223
2018-02-18T12:39:49.045Z,26527
2018-02-18T12:40:19.062Z,25907
2018-02-18T12:40:49.090Z,24900
2018-02-18T12:41:19.626Z,25343
2018-02-18T12:41:49.153Z,25397
2018-02-18T12:42:19.155Z,25933
2018-02-18T12:42:49.218Z,25957
2018-02-18T12:43:19.256Z,26173
2018-02-18T12:43:49.236Z,26210
2018-02-18T12:44:19.296Z,25750
2018-02-18T12:44:49.352Z,25383